createdAt,value
2023-03-23T00:01:31.727Z,99402.78
2023-03-23T00:03:59.421Z,99404.31
2023-03-23T00:06:27.900Z,99395.41
2023-03-23T00:09:00.505Z,99412.16
2023-03-23T00:11:30.420Z,99414.94
2023-03-23T00:13:59.376Z,99426.19
2023-03-23T00:16:30.084Z,99438.59
2023-03-23T00:18:58.668Z,99416.78
2023-03-23T00:21:34.906Z,99425.56
2023-03-23T00:24:03.462Z,99419.94
2023-03-23T00:26:31.463Z,99424.63
2023-03-23T00:29:18.472Z,99427.78
2023-03-23T00:31:49.391Z,99429.78
2023-03-23T00:34:20.675Z,99430.13
2023-03-23T00:36:48.559Z,99427.19
2023-03-23T00:39:17.549Z,99439.59
2023-03-23T00:41:45.595Z,99442.41
2023-03-23T00:44:18.029Z,99449.53
2023-03-23T00:46:51.066Z,99435.00
2023-03-23T00:49:19.289Z,99445.75
2023-03-23T00:51:46.549Z,99465.06
2023-03-23T00:54:14.123Z,99458.84
2023-03-23T00:56:41.369Z,99451.97
2023-03-23T00:59:08.301Z,99481.31
2023-03-23T01:01:36.305Z,99460.03
2023-03-23T01:04:05.399Z,99452.28
2023-03-23T01:06:33.767Z,99467.84
2023-03-23T01:09:02.205Z,99469.97
2023-03-23T01:11:29.397Z,99471.81
2023-03-23T01:13:56.315Z,99467.75
2023-03-23T01:16:23.366Z,99472.16
2023-03-23T01:18:50.341Z,99469.72
2023-03-23T01:21:19.279Z,99468.91
2023-03-23T01:23:46.620Z,99475.66
2023-03-23T01:26:15.780Z,99473.06
2023-03-23T01:28:42.997Z,99476.38
2023-03-23T01:31:14.477Z,99491.44
2023-03-23T01:33:42.303Z,99489.47
2023-03-23T01:36:11.692Z,99486.16
2023-03-23T01:38:38.658Z,99490.81
2023-03-23T01:41:06.019Z,99482.91
2023-03-23T01:43:33.108Z,99512.13
2023-03-23T01:46:00.191Z,99484.72
2023-03-23T01:48:27.586Z,99500.41
2023-03-23T01:50:56.120Z,99509.97
2023-03-23T01:53:23.676Z,99497.13
2023-03-23T01:55:52.190Z,99505.56
2023-03-23T01:58:21.545Z,99506.72
2023-03-23T02:00:49.230Z,99507.03
2023-03-23T02:03:18.363Z,99526.34
2023-03-23T02:05:45.436Z,99502.97
2023-03-23T02:08:14.496Z,99506.09
2023-03-23T02:10:42.277Z,99503.28
2023-03-23T02:13:18.508Z,99500.03
2023-03-23T02:15:48.465Z,99505.00
2023-03-23T02:18:15.971Z,99505.13
2023-03-23T02:20:46.365Z,99495.56
2023-03-23T02:23:13.865Z,99515.88
2023-03-23T02:25:43.980Z,99514.09
2023-03-23T02:28:11.202Z,99506.16
2023-03-23T02:30:38.636Z,99510.00
2023-03-23T02:33:10.217Z,99521.22
2023-03-23T02:35:40.180Z,99517.59
2023-03-23T02:38:13.554Z,99509.66
2023-03-23T02:40:44.225Z,99519.94
2023-03-23T02:43:14.160Z,99509.75
2023-03-23T02:45:43.060Z,99515.00
2023-03-23T02:48:11.683Z,99526.22
2023-03-23T02:50:40.276Z,99515.81
2023-03-23T02:53:09.889Z,99518.28
2023-03-23T02:55:42.087Z,99525.75
2023-03-23T02:58:11.071Z,99526.06
2023-03-23T03:00:38.383Z,99518.78
2023-03-23T03:03:07.936Z,99524.75
2023-03-23T03:05:40.265Z,99532.69
2023-03-23T03:08:10.814Z,99536.63
2023-03-23T03:10:38.372Z,99525.44
2023-03-23T03:13:05.797Z,99530.56
2023-03-23T03:15:36.198Z,99526.81
2023-03-23T03:18:09.080Z,99530.41
2023-03-23T03:20:39.572Z,99536.50
2023-03-23T03:23:09.112Z,99532.88
2023-03-23T03:25:36.513Z,99523.00
2023-03-23T03:28:04.929Z,99525.81
2023-03-23T03:30:35.180Z,99536.69
2023-03-23T03:33:04.408Z,99537.59
2023-03-23T03:35:33.220Z,99534.66
2023-03-23T03:38:06.125Z,99537.91
2023-03-23T03:40:33.521Z,99533.47
2023-03-23T03:43:00.481Z,99547.47
2023-03-23T03:45:27.521Z,99543.06
2023-03-23T03:47:54.482Z,99542.56
2023-03-23T03:50:22.679Z,99546.19
2023-03-23T03:52:49.562Z,99550.97
2023-03-23T03:55:18.362Z,99552.81
2023-03-23T03:57:45.603Z,99550.00
2023-03-23T04:00:16.172Z,99551.16
2023-03-23T04:02:44.302Z,99558.91
2023-03-23T04:05:12.902Z,99554.47
2023-03-23T04:07:40.705Z,99555.47
2023-03-23T04:10:08.484Z,99552.69
2023-03-23T04:12:36.966Z,99555.34
2023-03-23T04:15:05.986Z,99556.50
2023-03-23T04:17:33.918Z,99568.84
2023-03-23T04:20:01.438Z,99567.72
2023-03-23T04:22:32.118Z,99572.00
2023-03-23T04:24:59.887Z,99577.13
2023-03-23T04:27:29.375Z,99576.50
2023-03-23T04:29:57.623Z,99569.59
2023-03-23T04:32:30.005Z,99585.03
2023-03-23T04:34:58.059Z,99583.25
2023-03-23T04:37:40.582Z,99582.28
2023-03-23T04:40:10.248Z,99587.88
2023-03-23T04:42:38.658Z,99584.25
2023-03-23T04:45:07.523Z,99586.91
2023-03-23T04:47:35.611Z,99584.63
2023-03-23T04:50:02.757Z,99584.94
2023-03-23T04:52:29.778Z,99584.44
2023-03-23T04:54:57.670Z,99583.16
2023-03-23T04:57:24.782Z,99593.19
2023-03-23T04:59:51.681Z,99595.66
2023-03-23T05:02:18.652Z,99595.34
2023-03-23T05:04:46.348Z,99601.78
2023-03-23T05:07:13.548Z,99591.72
2023-03-23T05:09:40.488Z,99602.63
2023-03-23T05:12:09.800Z,99583.66
2023-03-23T05:14:37.854Z,99595.53
2023-03-23T05:17:04.809Z,99591.91
2023-03-23T05:19:31.785Z,99599.00
2023-03-23T05:22:04.124Z,99607.06
2023-03-23T05:24:33.904Z,99605.44
2023-03-23T05:27:01.138Z,99612.53
2023-03-23T05:29:31.309Z,99598.19
2023-03-23T05:32:01.103Z,99601.63
2023-03-23T05:34:28.040Z,99602.81
2023-03-23T05:36:56.764Z,99610.72
2023-03-23T05:39:23.974Z,99613.19
2023-03-23T05:41:51.210Z,99610.41
2023-03-23T05:44:20.416Z,99609.06
2023-03-23T05:46:47.755Z,99612.69
2023-03-23T05:49:15.391Z,99608.25
2023-03-23T05:51:42.308Z,99596.25
2023-03-23T05:54:14.628Z,99609.44
2023-03-23T05:56:42.246Z,99588.63
2023-03-23T05:59:09.696Z,99597.88
2023-03-23T06:01:37.187Z,99600.66
2023-03-23T06:04:04.216Z,99590.44
2023-03-23T06:06:31.850Z,99588.97
2023-03-23T06:08:59.397Z,99585.63
2023-03-23T06:11:27.522Z,99587.09
2023-03-23T06:13:54.649Z,99588.06
2023-03-23T06:16:21.771Z,99585.41
2023-03-23T06:18:49.632Z,99579.97
2023-03-23T06:21:19.686Z,99592.16
2023-03-23T06:23:46.963Z,99580.25
2023-03-23T06:26:17.704Z,99602.00
2023-03-23T06:28:44.792Z,99589.78
2023-03-23T06:31:12.580Z,99590.41
2023-03-23T06:33:39.650Z,99599.47
2023-03-23T06:36:08.010Z,99600.91
2023-03-23T06:38:35.029Z,99597.09
2023-03-23T06:41:02.044Z,99601.34
2023-03-23T06:43:31.210Z,99601.16
2023-03-23T06:46:00.240Z,99597.00
2023-03-23T06:48:27.320Z,99592.03
2023-03-23T06:50:54.499Z,99591.03
2023-03-23T06:53:22.052Z,99602.06
2023-03-23T06:55:49.164Z,99594.59
2023-03-23T06:58:16.476Z,99598.34
2023-03-23T07:00:43.682Z,99582.47
2023-03-23T07:03:10.661Z,99597.78
2023-03-23T07:05:37.587Z,99588.34
2023-03-23T07:08:04.788Z,99594.91
2023-03-23T07:10:31.785Z,99594.25
2023-03-23T07:12:58.865Z,99581.50
2023-03-23T07:15:25.860Z,99583.63
2023-03-23T07:17:52.999Z,99582.47
2023-03-23T07:20:20.016Z,99587.13
2023-03-23T07:22:47.132Z,99571.50
2023-03-23T07:25:14.121Z,99572.63
2023-03-23T07:27:41.143Z,99572.75
2023-03-23T07:30:08.963Z,99572.06
2023-03-23T07:32:36.080Z,99566.44
2023-03-23T07:35:03.182Z,99558.84
2023-03-23T07:37:34.584Z,99569.75
2023-03-23T07:40:01.914Z,99580.13
2023-03-23T07:42:29.147Z,99580.97
2023-03-23T07:44:56.351Z,99579.84
2023-03-23T07:47:23.416Z,99580.69
2023-03-23T07:50:01.552Z,99579.84
2023-03-23T07:52:28.605Z,99572.63
2023-03-23T07:54:55.748Z,99583.34
2023-03-23T07:57:23.363Z,99584.50
2023-03-23T07:59:50.421Z,99578.06
2023-03-23T08:02:21.140Z,99587.19
2023-03-23T08:04:49.298Z,99590.81
2023-03-23T08:07:19.672Z,99603.56
2023-03-23T08:09:48.604Z,99607.53
2023-03-23T08:12:15.820Z,99611.00
2023-03-23T08:14:43.200Z,99597.66
2023-03-23T08:17:11.375Z,99604.09
2023-03-23T08:19:39.039Z,99603.28
2023-03-23T08:22:06.079Z,99605.94
2023-03-23T08:24:34.257Z,99608.41
2023-03-23T08:27:01.715Z,99607.94
2023-03-23T08:29:28.801Z,99619.16
2023-03-23T08:31:56.123Z,99613.88
2023-03-23T08:34:24.253Z,99625.47
2023-03-23T08:36:52.953Z,99623.59
2023-03-23T08:39:19.985Z,99621.63
2023-03-23T08:41:47.169Z,99619.28
2023-03-23T08:44:14.845Z,99617.63
2023-03-23T08:46:41.936Z,99623.41
2023-03-23T08:49:09.328Z,99626.03
2023-03-23T08:51:37.466Z,99622.03
2023-03-23T08:54:04.858Z,99620.19
2023-03-23T08:56:31.876Z,99617.88
2023-03-23T08:58:58.916Z,99617.66
2023-03-23T09:01:26.329Z,99620.59
2023-03-23T09:03:53.704Z,99613.47
2023-03-23T09:06:21.123Z,99631.28
2023-03-23T09:08:48.655Z,99626.97
2023-03-23T09:11:15.742Z,99614.22
2023-03-23T09:13:43.104Z,99628.41
2023-03-23T09:16:10.325Z,99623.25
2023-03-23T09:18:38.863Z,99626.19
2023-03-23T09:21:06.315Z,99627.50
2023-03-23T09:23:47.120Z,99619.53
2023-03-23T09:26:14.454Z,99620.84
2023-03-23T09:28:41.856Z,99617.00
2023-03-23T09:31:09.310Z,99625.09
2023-03-23T09:33:37.585Z,99634.84
2023-03-23T09:36:16.234Z,99624.44
2023-03-23T09:38:47.828Z,99616.47
2023-03-23T09:41:18.263Z,99613.00
2023-03-23T09:43:48.369Z,99616.63
2023-03-23T09:46:18.623Z,99621.06
2023-03-23T09:48:49.448Z,99614.28
2023-03-23T09:51:19.595Z,99620.72
2023-03-23T09:53:48.950Z,99602.72
2023-03-23T09:56:17.168Z,99598.75
2023-03-23T09:58:47.843Z,99598.84
2023-03-23T10:01:19.347Z,99596.06
2023-03-23T10:03:48.318Z,99609.75
2023-03-23T10:06:19.277Z,99601.78
2023-03-23T10:08:57.094Z,99607.41
2023-03-23T10:11:27.920Z,99606.47
2023-03-23T10:13:58.620Z,99602.94
2023-03-23T10:16:30.830Z,99594.88
2023-03-23T10:19:03.436Z,99613.03
2023-03-23T10:21:32.100Z,99615.84
2023-03-23T10:24:01.842Z,99623.44
2023-03-23T10:26:34.599Z,99621.34
2023-03-23T10:29:04.826Z,99631.41
2023-03-23T10:31:36.645Z,99628.94
2023-03-23T10:34:06.852Z,99641.34
2023-03-23T10:36:38.879Z,99648.47
2023-03-23T10:39:13.140Z,99638.41
2023-03-23T10:41:40.323Z,99636.28
2023-03-23T10:44:17.622Z,99641.91
2023-03-23T10:46:49.953Z,99628.19
2023-03-23T10:49:21.101Z,99636.97
2023-03-23T10:51:52.403Z,99632.53
2023-03-23T10:54:27.137Z,99627.25
2023-03-23T10:56:59.670Z,99637.31
2023-03-23T10:59:30.139Z,99633.69
2023-03-23T11:01:59.579Z,99627.25
2023-03-23T11:04:27.489Z,99643.63
2023-03-23T11:06:59.197Z,99634.19
2023-03-23T11:09:29.404Z,99637.50
2023-03-23T11:12:02.160Z,99643.44
2023-03-23T11:14:31.501Z,99631.28
2023-03-23T11:17:10.331Z,99625.97
2023-03-23T11:19:42.799Z,99627.97
2023-03-23T11:22:15.788Z,99645.50
2023-03-23T11:24:47.659Z,99638.75
2023-03-23T11:27:16.119Z,99628.22
2023-03-23T11:29:51.983Z,99631.56
2023-03-23T11:32:25.733Z,99635.19
2023-03-23T11:34:57.856Z,99648.72
2023-03-23T11:37:32.842Z,99633.53
2023-03-23T11:40:06.321Z,99635.72
2023-03-23T11:42:33.657Z,99637.56
2023-03-23T11:45:03.905Z,99627.50
2023-03-23T11:47:32.758Z,99647.84
2023-03-23T11:50:03.100Z,99624.94
2023-03-23T11:52:35.441Z,99641.13
2023-03-23T11:55:11.123Z,99635.72
2023-03-23T11:57:38.287Z,99636.94
2023-03-23T12:00:09.640Z,99628.34
2023-03-23T12:02:37.182Z,99626.06
2023-03-23T12:05:07.421Z,99624.06
2023-03-23T12:07:38.046Z,99614.50
2023-03-23T12:10:08.336Z,99622.66
2023-03-23T12:12:42.497Z,99604.63
2023-03-23T12:15:16.445Z,99601.63
2023-03-23T12:17:45.121Z,99604.63
2023-03-23T12:20:17.884Z,99612.25
2023-03-23T12:22:46.621Z,99599.66
2023-03-23T12:25:18.580Z,99604.16
2023-03-23T12:27:48.828Z,99610.94
2023-03-23T12:30:19.388Z,99605.81
2023-03-23T12:32:49.535Z,99614.91
2023-03-23T12:35:23.342Z,99627.81
2023-03-23T12:37:53.378Z,99607.69
2023-03-23T12:40:24.508Z,99609.16
2023-03-23T12:42:54.847Z,99607.66
2023-03-23T12:45:24.913Z,99605.88
2023-03-23T12:47:57.641Z,99611.81
2023-03-23T12:50:30.109Z,99592.03
2023-03-23T12:53:00.164Z,99584.59
2023-03-23T12:55:34.445Z,99586.56
2023-03-23T12:58:04.771Z,99561.31
2023-03-23T13:00:35.981Z,99561.78
2023-03-23T13:03:06.603Z,99550.09
2023-03-23T13:05:37.836Z,99554.56
2023-03-23T13:08:09.531Z,99567.13
2023-03-23T13:10:41.248Z,99561.19
2023-03-23T13:13:14.300Z,99586.25
2023-03-23T13:15:51.543Z,99578.47
2023-03-23T13:18:26.003Z,99580.63
2023-03-23T13:20:57.064Z,99571.09
2023-03-23T13:23:27.022Z,99593.69
2023-03-23T13:25:58.121Z,99580.22
2023-03-23T13:28:27.487Z,99562.56
2023-03-23T13:30:58.658Z,99575.63
2023-03-23T13:33:26.770Z,99572.13
2023-03-23T13:35:55.503Z,99566.53
2023-03-23T13:38:26.115Z,99549.25
2023-03-23T13:40:55.249Z,99542.81
2023-03-23T13:43:25.737Z,99539.84
2023-03-23T13:45:55.411Z,99544.47
2023-03-23T13:48:24.849Z,99538.75
2023-03-23T13:50:52.595Z,99548.13
2023-03-23T13:53:23.100Z,99532.31
2023-03-23T13:56:05.940Z,99552.28
2023-03-23T13:58:46.118Z,99541.41
2023-03-23T14:01:17.953Z,99545.19
2023-03-23T14:03:51.889Z,99549.13
2023-03-23T14:06:23.077Z,99549.31
2023-03-23T14:08:53.237Z,99542.09
2023-03-23T14:11:23.558Z,99549.50
2023-03-23T14:13:51.261Z,99571.16
2023-03-23T14:16:21.474Z,99560.59
2023-03-23T14:18:51.461Z,99550.19
2023-03-23T14:21:23.311Z,99564.53
2023-03-23T14:23:50.827Z,99527.31
2023-03-23T14:26:19.093Z,99530.44
2023-03-23T14:28:47.920Z,99535.72
2023-03-23T14:31:19.713Z,99534.91
2023-03-23T14:33:47.248Z,99529.94
2023-03-23T14:36:14.587Z,99524.50
2023-03-23T14:38:41.872Z,99515.09
2023-03-23T14:41:12.993Z,99514.16
2023-03-23T14:43:40.675Z,99522.91
2023-03-23T14:46:09.778Z,99510.38
2023-03-23T14:48:37.547Z,99512.53
2023-03-23T14:51:06.675Z,99506.22
2023-03-23T14:53:37.129Z,99501.16
2023-03-23T14:56:08.428Z,99510.75
2023-03-23T14:58:35.827Z,99503.13
2023-03-23T15:01:06.985Z,99511.88
2023-03-23T15:03:37.581Z,99516.47
2023-03-23T15:06:09.077Z,99527.50
2023-03-23T15:08:37.070Z,99520.88
2023-03-23T15:11:06.899Z,99502.69
2023-03-23T15:13:35.184Z,99504.63
2023-03-23T15:16:03.787Z,99500.44
2023-03-23T15:18:33.222Z,99496.28
2023-03-23T15:21:09.708Z,99504.13
2023-03-23T15:23:42.334Z,99514.53
2023-03-23T15:26:17.808Z,99498.66
2023-03-23T15:28:45.402Z,99492.84
2023-03-23T15:31:13.002Z,99492.16
2023-03-23T15:33:41.482Z,99514.72
2023-03-23T15:36:11.144Z,99481.66
2023-03-23T15:38:38.840Z,99483.44
2023-03-23T15:41:08.301Z,99480.09
2023-03-23T15:43:37.409Z,99500.69
2023-03-23T15:46:08.296Z,99490.88
2023-03-23T15:48:48.512Z,99487.03
2023-03-23T15:51:16.850Z,99475.56
2023-03-23T15:53:44.618Z,99472.22
2023-03-23T15:56:12.923Z,99461.56
2023-03-23T15:58:40.889Z,99456.56
2023-03-23T16:01:13.740Z,99459.13
2023-03-23T16:03:44.363Z,99459.25
2023-03-23T16:06:13.162Z,99467.50
2023-03-23T16:08:54.178Z,99459.66
2023-03-23T16:11:23.428Z,99469.03
2023-03-23T16:13:51.401Z,99462.72
2023-03-23T16:16:20.103Z,99464.47
2023-03-23T16:18:48.019Z,99452.88
2023-03-23T16:21:16.054Z,99450.19
2023-03-23T16:23:45.219Z,99435.81
2023-03-23T16:26:13.464Z,99425.50
2023-03-23T16:28:41.962Z,99442.00
2023-03-23T16:31:09.540Z,99429.25
2023-03-23T16:33:37.338Z,99430.06
2023-03-23T16:36:05.432Z,99423.28
2023-03-23T16:38:33.271Z,99427.34
2023-03-23T16:41:16.861Z,99416.13
2023-03-23T16:43:44.520Z,99418.59
2023-03-23T16:46:13.290Z,99414.63
2023-03-23T16:48:41.225Z,99410.16
2023-03-23T16:51:08.989Z,99409.00
2023-03-23T16:53:37.561Z,99399.75
2023-03-23T16:56:05.582Z,99390.47
2023-03-23T16:58:33.269Z,99374.78
2023-03-23T17:01:02.064Z,99380.41
2023-03-23T17:03:30.010Z,99390.81
2023-03-23T17:05:59.904Z,99379.13
2023-03-23T17:08:27.229Z,99365.09
2023-03-23T17:10:54.663Z,99364.25
2023-03-23T17:13:22.284Z,99362.63
2023-03-23T17:15:53.572Z,99373.88
2023-03-23T17:18:21.809Z,99366.97
2023-03-23T17:20:49.568Z,99343.66
2023-03-23T17:23:18.194Z,99337.56
2023-03-23T17:25:47.379Z,99338.38
2023-03-23T17:28:15.070Z,99329.50
2023-03-23T17:30:43.553Z,99325.31
2023-03-23T17:33:11.989Z,99326.47
2023-03-23T17:35:39.259Z,99324.81
2023-03-23T17:38:06.624Z,99319.56
2023-03-23T17:40:34.124Z,99305.06
2023-03-23T17:43:01.651Z,99308.44
2023-03-23T17:45:29.509Z,99296.38
2023-03-23T17:47:57.186Z,99287.63
2023-03-23T17:50:25.176Z,99283.16
2023-03-23T17:52:52.862Z,99287.13
2023-03-23T17:55:20.400Z,99285.88
2023-03-23T17:57:48.544Z,99287.38
2023-03-23T18:00:17.169Z,99291.34
2023-03-23T18:02:45.138Z,99294.44
2023-03-23T18:05:13.676Z,99281.06
2023-03-23T18:07:41.810Z,99289.03
2023-03-23T18:10:13.364Z,99278.63
2023-03-23T18:12:41.696Z,99268.56
2023-03-23T18:15:10.323Z,99260.78
2023-03-23T18:17:38.120Z,99257.19
2023-03-23T18:20:07.359Z,99258.50
2023-03-23T18:22:34.917Z,99241.50
2023-03-23T18:25:03.498Z,99243.88
2023-03-23T18:27:30.989Z,99233.47
2023-03-23T18:29:58.829Z,99224.44
2023-03-23T18:32:30.689Z,99217.91
2023-03-23T18:34:58.455Z,99213.94
2023-03-23T18:37:26.273Z,99221.66
2023-03-23T18:39:54.991Z,99194.88
2023-03-23T18:42:22.493Z,99197.22
2023-03-23T18:44:50.088Z,99203.63
2023-03-23T18:47:17.712Z,99187.16
2023-03-23T18:49:47.900Z,99187.75
2023-03-23T18:52:15.300Z,99194.56
2023-03-23T18:54:45.865Z,99174.91
2023-03-23T18:57:13.206Z,99172.44
2023-03-23T18:59:40.780Z,99166.72
2023-03-23T19:02:08.196Z,99171.03
2023-03-23T19:04:35.702Z,99161.25
2023-03-23T19:07:03.946Z,99160.28
2023-03-23T19:09:31.345Z,99152.25
2023-03-23T19:11:59.855Z,99154.22
2023-03-23T19:14:27.408Z,99144.75
2023-03-23T19:16:54.697Z,99153.50
2023-03-23T19:19:24.810Z,99148.28
2023-03-23T19:21:53.465Z,99146.16
2023-03-23T19:24:20.747Z,99147.91
2023-03-23T19:26:48.726Z,99142.28
2023-03-23T19:31:47.840Z,99134.56
2023-03-23T19:34:16.464Z,99133.16
2023-03-23T19:36:53.761Z,99139.69
2023-03-23T19:39:23.878Z,99136.66
2023-03-23T19:41:51.659Z,99142.84
2023-03-23T19:44:18.851Z,99138.16
2023-03-23T19:46:46.223Z,99137.91
2023-03-23T19:49:14.667Z,99147.59
2023-03-23T19:51:41.954Z,99144.53
2023-03-23T19:54:09.101Z,99148.59
2023-03-23T19:56:36.569Z,99143.13
2023-03-23T19:59:04.632Z,99142.06
2023-03-23T20:01:32.601Z,99142.19
2023-03-23T20:04:00.493Z,99142.28
2023-03-23T20:06:29.223Z,99135.59
2023-03-23T20:09:00.055Z,99142.94
2023-03-23T20:11:28.241Z,99137.81
2023-03-23T20:13:56.014Z,99139.06
2023-03-23T20:16:23.725Z,99133.53
2023-03-23T20:18:50.854Z,99145.69
2023-03-23T20:21:22.403Z,99149.31
2023-03-23T20:23:50.801Z,99148.63
2023-03-23T20:26:19.689Z,99147.44
2023-03-23T20:28:47.618Z,99144.28
2023-03-23T20:31:23.224Z,99146.72
2023-03-23T20:34:00.108Z,99143.53
2023-03-23T20:36:35.258Z,99147.16
2023-03-23T20:39:05.796Z,99147.91
2023-03-23T20:41:33.387Z,99159.56
2023-03-23T20:44:00.654Z,99149.97
2023-03-23T20:46:28.239Z,99153.63
2023-03-23T20:48:55.465Z,99156.06
2023-03-23T20:51:22.628Z,99158.88
2023-03-23T20:53:49.714Z,99172.56
2023-03-23T20:56:16.832Z,99172.56
2023-03-23T20:58:44.058Z,99175.38
2023-03-23T21:01:12.370Z,99186.16
2023-03-23T21:03:40.969Z,99189.78
2023-03-23T21:06:08.411Z,99188.97
2023-03-23T21:08:36.783Z,99184.53
2023-03-23T21:11:05.093Z,99184.09
2023-03-23T21:13:32.526Z,99193.69
2023-03-23T21:16:00.980Z,99182.78
2023-03-23T21:18:28.905Z,99176.34
2023-03-23T21:20:57.677Z,99179.88
2023-03-23T21:23:27.066Z,99185.84
2023-03-23T21:25:55.215Z,99178.97
2023-03-23T21:28:22.468Z,99177.78
2023-03-23T21:30:52.902Z,99165.75
2023-03-23T21:33:20.500Z,99172.06
2023-03-23T21:35:47.718Z,99168.41
2023-03-23T21:38:15.475Z,99172.44
2023-03-23T21:40:42.671Z,99164.69
2023-03-23T21:43:15.170Z,99175.84
2023-03-23T21:45:42.932Z,99182.53
2023-03-23T21:48:10.704Z,99188.97
2023-03-23T21:50:38.713Z,99191.03
2023-03-23T21:53:06.100Z,99192.13
2023-03-23T21:55:34.069Z,99197.38
2023-03-23T21:58:01.759Z,99192.59
2023-03-23T22:00:30.143Z,99191.66
2023-03-23T22:02:57.631Z,99195.75
2023-03-23T22:05:24.927Z,99190.84
2023-03-23T22:07:51.940Z,99194.81
2023-03-23T22:10:19.032Z,99200.09
2023-03-23T22:12:46.206Z,99195.06
2023-03-23T22:15:14.300Z,99193.09
2023-03-23T22:17:41.674Z,99196.19
2023-03-23T22:20:11.422Z,99198.91
2023-03-23T22:22:38.522Z,99201.28
2023-03-23T22:25:06.049Z,99208.50
2023-03-23T22:27:33.144Z,99205.69
2023-03-23T22:30:00.318Z,99205.69
2023-03-23T22:32:27.685Z,99213.19
2023-03-23T22:34:55.256Z,99214.50
2023-03-23T22:37:22.456Z,99206.41
2023-03-23T22:39:49.587Z,99220.34
2023-03-23T22:42:16.722Z,99214.84
2023-03-23T22:44:44.003Z,99218.13
2023-03-23T22:47:11.550Z,99212.13
2023-03-23T22:49:39.481Z,99206.66
2023-03-23T22:52:06.941Z,99219.19
2023-03-23T22:54:36.530Z,99214.47
2023-03-23T22:57:03.683Z,99210.16
2023-03-23T22:59:30.723Z,99209.78
2023-03-23T23:01:57.912Z,99211.09
2023-03-23T23:04:25.046Z,99203.91
2023-03-23T23:07:00.382Z,99209.63
2023-03-23T23:09:33.909Z,99231.03
2023-03-23T23:12:01.024Z,99232.34
2023-03-23T23:14:28.148Z,99232.78
2023-03-23T23:16:55.472Z,99233.25
2023-03-23T23:19:23.179Z,99240.97
2023-03-23T23:21:50.882Z,99239.81
2023-03-23T23:24:18.381Z,99251.16
2023-03-23T23:26:45.411Z,99250.44
2023-03-23T23:29:12.994Z,99256.06
2023-03-23T23:31:40.311Z,99260.97
2023-03-23T23:34:07.458Z,99261.78
2023-03-23T23:36:34.674Z,99267.84
2023-03-23T23:39:02.702Z,99261.88
2023-03-23T23:41:31.078Z,99263.97
2023-03-23T23:43:58.224Z,99272.53
2023-03-23T23:46:25.399Z,99283.88
2023-03-23T23:48:52.542Z,99273.06
2023-03-23T23:51:19.668Z,99268.75
2023-03-23T23:53:53.707Z,99283.72
2023-03-23T23:56:21.977Z,99284.66
2023-03-23T23:58:49.427Z,99287.94
